^^
Station Historical Data
Daily Summary for March 13, 2018 Units:  Metric    English   Both
« Previous Day
Next Day »
Daily Weekly Monthly Yearly Custom
  High: Low: Average:
Temperature: -17.8 °C -1.9 °C 3.3 °C
Dew Point: -17.8 °C -7.7 °C -5.6 °C
Humidity: Humidity% 37% 53%
Wind Speed: 0km/h 0km/h 4.5km/h
Wind Gust: 0km/h - -
Wind- - SW
Pressure: 0 hPa 1029.7 hPa -
Precipitation: 0 mm    
Historical Graphs
 
 
Tabular Data for March 13, 2018
Time Temperature Dew Point Pressure Wind Wind Speed Wind Gust Humidity Rainfall Rate (Hourly)
-17.8 °C -17.8 °C 0 hPa Calm     Humidity% 0 mm
00:04 2.1 °C -5.8 °C 1030 hPa West 1.4 km/h 12.9 km/h 56% 0 mm
00:09 2.1 °C -6 °C 1030 hPa NE 7.9 km/h 17.7 km/h 55% 0 mm
00:14 2 °C -6.1 °C 1030 hPa SSE 6.4 km/h 14.5 km/h 55% 0 mm
00:19 1.9 °C -6 °C 1030 hPa NNE 1.4 km/h 9.7 km/h 56% 0 mm
00:24 1.9 °C -6 °C 1030 hPa East 4.7 km/h 9.7 km/h 56% 0 mm
00:30 2 °C -6.1 °C 1030 hPa WNW 3.2 km/h 11.3 km/h 55% 0 mm
00:35 2 °C -6.1 °C 1030 hPa SW 3.2 km/h 6.4 km/h 55% 0 mm
00:40 1.9 °C -5.7 °C 1030 hPa SW 1.4 km/h 3.2 km/h 57% 0 mm
00:45 1.9 °C -5.7 °C 1030 hPa SE 1.4 km/h 14.5 km/h 57% 0 mm
00:55 1.8 °C -5.8 °C 1030 hPa South 3.2 km/h 6.4 km/h 57% 0 mm
01:00 1.7 °C -6.1 °C 1030 hPa SW 4.7 km/h 8 km/h 56% 0 mm
01:05 1.7 °C -5.7 °C 1030 hPa WSW 6.4 km/h 8 km/h 58% 0 mm
01:20 1.7 °C -5.7 °C 1030.4 hPa SE 4.7 km/h 8 km/h 58% 0 mm
01:25 1.7 °C -5.9 °C 1030.4 hPa SW 3.2 km/h 8 km/h 57% 0 mm
01:30 1.7 °C -5.9 °C 1030.4 hPa Calm   14.5 km/h 57% 0 mm
01:40 1.6 °C -6 °C 1030.4 hPa West 4.7 km/h 16.1 km/h 57% 0 mm
01:45 1.6 °C -5.6 °C 1030 hPa WSW 6.4 km/h 19.3 km/h 59% 0 mm
01:55 1.6 °C -5.6 °C 1030 hPa WSW 6.4 km/h 20.9 km/h 59% 0 mm
02:00 1.6 °C -5.8 °C 1030.4 hPa WNW 3.2 km/h 11.3 km/h 58% 0 mm
02:05 1.6 °C -5.8 °C 1030.4 hPa Calm   20.9 km/h 58% 0 mm
02:11 1.6 °C -5.6 °C 1030.4 hPa WNW 4.7 km/h 4.8 km/h 59% 0 mm
02:26 1.4 °C -5.7 °C 1030.4 hPa West 1.4 km/h 11.3 km/h 59% 0 mm
02:36 1.3 °C -5.4 °C 1030.4 hPa Calm   9.7 km/h 61% 0 mm
03:01 1.2 °C -5.7 °C 1030.4 hPa WNW 7.9 km/h 14.5 km/h 60% 0 mm
03:06 1.2 °C -5.7 °C 1030.4 hPa Calm   8 km/h 60% 0 mm
03:16 1.1 °C -5.8 °C 1030.7 hPa NW 1.4 km/h 17.7 km/h 60% 0 mm
03:26 1 °C -5.9 °C 1030.7 hPa SW 1.4 km/h 4.8 km/h 60% 0 mm
03:31 0.9 °C -6.2 °C 1030.7 hPa SSW 1.4 km/h 8 km/h 59% 0 mm
03:36 0.8 °C -6.1 °C 1030.7 hPa West 6.4 km/h 12.9 km/h 60% 0 mm
03:41 0.8 °C -5.9 °C 1030.7 hPa South 1.4 km/h 3.2 km/h 61% 0 mm
03:46 0.7 °C -5.7 °C 1030.4 hPa Calm   8 km/h 62% 0 mm
03:51 0.7 °C -5.7 °C 1030.4 hPa Calm   9.7 km/h 62% 0 mm
04:12 0.6 °C -5.6 °C 1030.4 hPa Calm   16.1 km/h 63% 0 mm
04:17 0.6 °C -5.6 °C 1030.4 hPa Calm   6.4 km/h 63% 0 mm
04:37 0.4 °C -5.8 °C 1030.4 hPa NE 3.2 km/h 14.5 km/h 63% 0 mm
04:42 0.4 °C -5.8 °C 1030.4 hPa WNW 4.7 km/h 16.1 km/h 63% 0 mm
04:47 0.4 °C -5.8 °C 1030.4 hPa SSW 1.4 km/h 8 km/h 63% 0 mm
04:52 0.3 °C -5.9 °C 1030.4 hPa Calm   3.2 km/h 63% 0 mm
04:57 0.3 °C -5.7 °C 1030.4 hPa WNW 1.4 km/h 4.8 km/h 64% 0 mm
05:07 0.4 °C -5.6 °C 1030.4 hPa ESE 4.7 km/h 6.4 km/h 64% 0 mm
05:12 0.4 °C -5.4 °C 1030.7 hPa WNW 7.9 km/h 9.7 km/h 65% 0 mm
05:17 0.4 °C -5.4 °C 1030.7 hPa WSW 3.2 km/h 6.4 km/h 65% 0 mm
05:22 0.4 °C -5.4 °C 1030.7 hPa West 1.4 km/h 9.7 km/h 65% 0 mm
05:27 0.3 °C -5.5 °C 1030.7 hPa SSW 1.4 km/h 4.8 km/h 65% 0 mm
05:32 0.3 °C -5.3 °C 1030.7 hPa West 6.4 km/h 8 km/h 66% 0 mm
05:37 0.3 °C -5.5 °C 1031 hPa ESE 4.7 km/h 12.9 km/h 65% 0 mm
05:43 0.2 °C -5.4 °C 1031 hPa SW 4.7 km/h 8 km/h 66% 0 mm
05:48 0.2 °C -5.6 °C 1031 hPa ESE 3.2 km/h 4.8 km/h 65% 0 mm
05:53 0.2 °C -5.4 °C 1031 hPa SW 1.4 km/h 6.4 km/h 66% 0 mm
05:58 0.2 °C -5.6 °C 1031 hPa Calm   8 km/h 65% 0 mm
06:03 0.2 °C -5.6 °C 1031 hPa Calm   3.2 km/h 65% 0 mm
06:08 0.1 °C -5.5 °C 1031 hPa Calm   4.8 km/h 66% 0 mm
06:13 0 °C -5.6 °C 1031 hPa WSW 9.7 km/h 12.9 km/h 66% 0 mm
06:18 0 °C -5.6 °C 1031 hPa WSW 1.4 km/h 6.4 km/h 66% 0 mm
06:23 0 °C -5.6 °C 1031.4 hPa Calm   4.8 km/h 66% 0 mm
06:38 -0.2 °C -5.8 °C 1031.4 hPa Calm   3.2 km/h 66% 0 mm
06:53 -0.4 °C -6 °C 1031.7 hPa Calm   1.6 km/h 66% 0 mm
06:58 -0.5 °C -5.7 °C 1031.7 hPa ESE 3.2 km/h 3.2 km/h 68% 0 mm
07:03 -0.6 °C -6.2 °C 1031.7 hPa East 3.2 km/h 4.8 km/h 66% 0 mm
07:08 -0.6 °C -5.4 °C 1031.7 hPa Calm   1.6 km/h 70% 0 mm
07:13 -0.9 °C -5.9 °C 1031.7 hPa Calm   1.6 km/h 69% 0 mm
07:23 -1.3 °C -5.9 °C 1032.1 hPa Calm   1.6 km/h 71% 0 mm
07:28 -1.5 °C -5.2 °C 1032.1 hPa Calm   1.6 km/h 76% 0 mm
07:43 -1.9 °C -5.4 °C 1032.4 hPa NW 1.4 km/h 3.2 km/h 77% 0 mm
07:48 -1.8 °C -5.8 °C 1032.4 hPa Calm   1.6 km/h 74% 0 mm
07:53 -1.7 °C -6.1 °C 1032.4 hPa West 6.4 km/h 8 km/h 72% 0 mm
07:58 -1.2 °C -7.1 °C 1032.7 hPa WNW 1.4 km/h 6.4 km/h 64% 0 mm
08:03 -1 °C -7.2 °C 1032.7 hPa Calm   4.8 km/h 63% 0 mm
08:09 -0.9 °C -7.3 °C 1032.7 hPa Calm   3.2 km/h 62% 0 mm
08:29 -1.3 °C -6.4 °C 1033.1 hPa Calm   1.6 km/h 68% 0 mm
08:34 -1.2 °C -6.5 °C 1033.1 hPa ENE 1.4 km/h 1.6 km/h 67% 0 mm
08:44 -1.4 °C -6.3 °C 1033.4 hPa Calm     69% 0 mm
08:49 -1.3 °C -6.1 °C 1033.4 hPa Calm   1.6 km/h 70% 0 mm
08:59 -0.7 °C -6.9 °C 1033.1 hPa Calm   6.4 km/h 63% 0 mm
09:14 2 °C -6.3 °C 1033.1 hPa Calm   4.8 km/h 54% 0 mm
09:19 2.4 °C -6.5 °C 1033.1 hPa Calm   9.7 km/h 52% 0 mm
09:29 2.7 °C -7 °C 1033.4 hPa ESE 4.7 km/h 9.7 km/h 49% 0 mm
09:44 4.2 °C -6.4 °C 1033.4 hPa WNW 3.2 km/h 4.8 km/h 46% 0 mm
09:59 3.2 °C -7.3 °C 1033.7 hPa WNW 6.4 km/h 14.5 km/h 46% 0 mm
10:15 3.3 °C -7.5 °C 1033.7 hPa SW 4.7 km/h 4.8 km/h 45% 0 mm
10:40 3.6 °C -7.5 °C 1033.7 hPa WNW 7.9 km/h 16.1 km/h 44% 0 mm
10:45 3.4 °C -7.7 °C 1033.7 hPa WNW 6.4 km/h 19.3 km/h 44% 0 mm
10:55 3.5 °C -7.6 °C 1033.7 hPa Calm   17.7 km/h 44% 0 mm
11:00 3.4 °C -7.4 °C 1033.7 hPa WNW 13 km/h 17.7 km/h 45% 0 mm
11:05 3.6 °C -6.9 °C 1033.7 hPa ENE 1.4 km/h 9.7 km/h 46% 0 mm
11:25 3.6 °C -7.2 °C 1033.7 hPa North 1.4 km/h 11.3 km/h 45% 0 mm
11:30 4.1 °C -6.5 °C 1033.7 hPa WSW 3.2 km/h 8 km/h 46% 0 mm
11:35 3.9 °C -7.5 °C 1033.7 hPa NW 9.7 km/h 16.1 km/h 43% 0 mm
11:40 4 °C -6.3 °C 1033.7 hPa WNW 3.2 km/h 12.9 km/h 47% 0 mm
11:50 3.8 °C -7 °C 1033.4 hPa WSW 6.4 km/h 9.7 km/h 45% 0 mm
11:55 4.3 °C -6.3 °C 1033.4 hPa WNW 7.9 km/h 11.3 km/h 46% 0 mm
12:00 4.4 °C -6.5 °C 1033.4 hPa WNW 19.5 km/h 19.5 km/h 45% 0 mm
12:05 4.5 °C -6.7 °C 1033.4 hPa West 4.7 km/h 6.4 km/h 44% 0 mm
12:21 4.8 °C -7.3 °C 1033.1 hPa WSW 1.4 km/h 12.9 km/h 41% 0 mm
12:26 4.8 °C -6.7 °C 1033.1 hPa West 3.2 km/h 16.1 km/h 43% 0 mm
12:36 5 °C -5.7 °C 1032.7 hPa WSW 3.2 km/h 9.7 km/h 46% 0 mm
12:51 5.4 °C -6.5 °C 1032.7 hPa WNW 7.9 km/h 12.9 km/h 42% 0 mm
13:01 5.6 °C -6.3 °C 1032.7 hPa West 11.1 km/h 16.1 km/h 42% 0 mm
13:06 5.5 °C -5.8 °C 1032.7 hPa South 1.4 km/h 6.4 km/h 44% 0 mm
13:11 5.7 °C -5.9 °C 1032.7 hPa WNW 4.7 km/h 20.9 km/h 43% 0 mm
13:16 5.6 °C -6.6 °C 1032.4 hPa ENE 11.1 km/h 16.1 km/h 41% 0 mm
13:21 5.9 °C -5.4 °C 1032.4 hPa ESE 6.4 km/h 9.7 km/h 44% 0 mm
13:31 5.9 °C -6 °C 1032.4 hPa WSW 6.4 km/h 14.5 km/h 42% 0 mm
13:41 6.3 °C -5.4 °C 1032.1 hPa ENE 9.7 km/h 16.1 km/h 43% 0 mm
13:56 6.4 °C -4.1 °C 1031.7 hPa West 3.2 km/h 19.3 km/h 47% 0 mm
14:16 7.2 °C -3.9 °C 1031.4 hPa ENE 11.1 km/h 12.9 km/h 45% 0 mm
14:22 7.3 °C -4.5 °C 1031.4 hPa WSW 7.9 km/h 8 km/h 43% 0 mm
14:27 7.2 °C -5.2 °C 1031 hPa West 13 km/h 13 km/h 41% 0 mm
14:47 7.7 °C -3.8 °C 1031 hPa East 7.9 km/h 12.9 km/h 44% 0 mm
14:52 7.6 °C -5.1 °C 1031 hPa WSW 3.2 km/h 20.9 km/h 40% 0 mm
14:57 7.6 °C -4.2 °C 1031 hPa ENE 4.7 km/h 29 km/h 43% 0 mm
15:02 7.4 °C -4.4 °C 1031 hPa WSW 3.2 km/h 20.9 km/h 43% 0 mm
15:12 7.9 °C -3.9 °C 1031 hPa WNW 1.4 km/h 6.4 km/h 43% 0 mm
15:22 7.2 °C -5.2 °C 1030.7 hPa WNW 11.1 km/h 12.9 km/h 41% 0 mm
15:32 7 °C -5.4 °C 1030.7 hPa WNW 9.7 km/h 19.3 km/h 41% 0 mm
15:37 6.7 °C -5.6 °C 1030.7 hPa WSW 3.2 km/h 12.9 km/h 41% 0 mm
15:42 6.9 °C -4.5 °C 1030.7 hPa NW 7.9 km/h 11.3 km/h 44% 0 mm
15:47 7.2 °C -5.2 °C 1030.7 hPa West 4.7 km/h 19.3 km/h 41% 0 mm
15:52 7.2 °C -5.2 °C 1030.4 hPa SW 4.7 km/h 17.7 km/h 41% 0 mm
15:57 7.3 °C -4.2 °C 1030.4 hPa WNW 9.7 km/h 12.9 km/h 44% 0 mm
16:07 7.3 °C -5.1 °C 1030.7 hPa NW 9.7 km/h 19.3 km/h 41% 0 mm
16:12 7.5 °C -4.3 °C 1030.4 hPa SE 9.7 km/h 19.3 km/h 43% 0 mm
16:17 7.8 °C -4.6 °C 1030 hPa ENE 6.4 km/h 22.5 km/h 41% 0 mm
16:22 7.7 °C -5.1 °C 1030 hPa West 4.7 km/h 11.3 km/h 40% 0 mm
16:27 7.7 °C -5.4 °C 1030 hPa SW 4.7 km/h 22.5 km/h 39% 0 mm
16:37 8.4 °C -4.4 °C 1030 hPa WNW 17.7 km/h 17.7 km/h 40% 0 mm
16:42 8.3 °C -5.5 °C 1030 hPa West 6.4 km/h 17.7 km/h 37% 0 mm
16:47 8.4 °C -5.1 °C 1030 hPa WNW 6.4 km/h 14.5 km/h 38% 0 mm
16:52 8.3 °C -5.2 °C 1030 hPa WNW 16.3 km/h 20.9 km/h 38% 0 mm
16:57 8.4 °C -3.8 °C 1030 hPa West 3.2 km/h 11.3 km/h 42% 0 mm
17:02 8.5 °C -5 °C 1030 hPa WSW 7.9 km/h 17.7 km/h 38% 0 mm
17:07 8.4 °C -5.1 °C 1029.7 hPa WNW 14.3 km/h 20.9 km/h 38% 0 mm
17:12 8.7 °C -5.2 °C 1030 hPa WNW 7.9 km/h 17.7 km/h 37% 0 mm
17:22 8.3 °C -5.2 °C 1030 hPa West 7.9 km/h 19.3 km/h 38% 0 mm
17:27 8.3 °C -4.2 °C 1029.7 hPa ESE 4.7 km/h 29 km/h 41% 0 mm
17:47 8.3 °C -4.2 °C 1030 hPa WNW 6.4 km/h 6.4 km/h 41% 0 mm
17:57 7.7 °C -4.7 °C 1030 hPa WNW 4.7 km/h 14.5 km/h 41% 0 mm
18:17 7.1 °C -4.6 °C 1030.4 hPa West 7.9 km/h 12.9 km/h 43% 0 mm
18:23 6.7 °C -5 °C 1030.4 hPa Calm   14.5 km/h 43% 0 mm
18:28 6.6 °C -4.8 °C 1030.4 hPa NW 14.3 km/h 17.7 km/h 44% 0 mm
18:38 6.8 °C -4.9 °C 1030.4 hPa WNW 4.7 km/h 12.9 km/h 43% 0 mm
18:48 6.2 °C -4.9 °C 1030.4 hPa West 19.5 km/h 22.5 km/h 45% 0 mm
18:53 5.7 °C -4.7 °C 1030.4 hPa NW 4.7 km/h 19.3 km/h 47% 0 mm
18:58 5.5 °C -4.6 °C 1030.4 hPa NW 1.4 km/h 4.8 km/h 48% 0 mm
19:03 5.4 °C -4.7 °C 1030 hPa WSW 4.7 km/h 8 km/h 48% 0 mm
19:23 5.2 °C -4.4 °C 1030.4 hPa WNW 6.4 km/h 9.7 km/h 50% 0 mm
19:48 4.9 °C -4.7 °C 1030.4 hPa WNW 3.2 km/h 6.4 km/h 50% 0 mm
19:53 4.8 °C -4.7 °C 1030.4 hPa WSW 13 km/h 13 km/h 50% 0 mm
19:58 4.8 °C -4.5 °C 1030.4 hPa Calm   4.8 km/h 51% 0 mm
20:03 4.8 °C -4.7 °C 1030.4 hPa West 1.4 km/h 11.3 km/h 50% 0 mm
20:08 4.8 °C -4.5 °C 1030.4 hPa WSW 4.7 km/h 16.1 km/h 51% 0 mm
20:13 4.8 °C -4.5 °C 1030.4 hPa WNW 9.7 km/h 9.7 km/h 51% 0 mm
20:19 4.8 °C -4.2 °C 1030.4 hPa NW 14.3 km/h 14.5 km/h 52% 0 mm
20:24 4.8 °C -4.5 °C 1030.4 hPa SW 3.2 km/h 8 km/h 51% 0 mm
20:34 4.8 °C -4 °C 1030.4 hPa West 1.4 km/h 3.2 km/h 53% 0 mm
20:39 4.8 °C -4.2 °C 1030.4 hPa West 1.4 km/h 8 km/h 52% 0 mm
20:54 4.8 °C -4 °C 1030.4 hPa Calm   11.3 km/h 53% 0 mm
20:59 4.7 °C -4.3 °C 1030.4 hPa WNW 6.4 km/h 11.3 km/h 52% 0 mm
21:04 4.8 °C -4.2 °C 1030.4 hPa Calm   4.8 km/h 52% 0 mm
21:09 4.8 °C -4.2 °C 1030.4 hPa Calm   6.4 km/h 52% 0 mm
21:19 4.7 °C -4.3 °C 1030.4 hPa NNE 3.2 km/h 8 km/h 52% 0 mm
21:24 4.7 °C -4.3 °C 1030.4 hPa SE 1.4 km/h 9.7 km/h 52% 0 mm
21:29 4.7 °C -4.1 °C 1030.4 hPa Calm   9.7 km/h 53% 0 mm
21:59 4.5 °C -4.5 °C 1030.4 hPa Calm   6.4 km/h 52% 0 mm
22:04 4.5 °C -4.8 °C 1030.4 hPa NW 3.2 km/h 16.1 km/h 51% 0 mm
22:09 4.5 °C -4.8 °C 1030.4 hPa WNW 13 km/h 16.1 km/h 51% 0 mm
22:14 4.5 °C -4.8 °C 1030.4 hPa West 6.4 km/h 17.7 km/h 51% 0 mm
22:19 4.4 °C -4.9 °C 1030.4 hPa ESE 3.2 km/h 11.3 km/h 51% 0 mm
22:24 4.4 °C -4.9 °C 1030.4 hPa SSE 1.4 km/h 6.4 km/h 51% 0 mm
22:29 4.4 °C -5.1 °C 1030.4 hPa WNW 3.2 km/h 11.3 km/h 50% 0 mm
22:44 4.3 °C -4.7 °C 1030.4 hPa East 1.4 km/h 14.5 km/h 52% 0 mm
23:09 3.9 °C -4.6 °C 1030.4 hPa ESE 3.2 km/h 9.7 km/h 54% 0 mm
23:20 3.7 °C -4.8 °C 1030.4 hPa East 1.4 km/h 8 km/h 54% 0 mm
23:25 3.6 °C -5.1 °C 1030.4 hPa East 6.4 km/h 6.4 km/h 53% 0 mm
23:30 3.5 °C -4.9 °C 1030.7 hPa West 6.4 km/h 16.1 km/h 54% 0 mm
23:35 3.5 °C -5.2 °C 1030.7 hPa SE 4.7 km/h 22.5 km/h 53% 0 mm
23:40 3.4 °C -5.3 °C 1030.7 hPa ESE 7.9 km/h 8 km/h 53% 0 mm
23:45 3.3 °C -5.1 °C 1030.7 hPa NE 6.4 km/h 16.1 km/h 54% 0 mm
23:50 3.3 °C -5.4 °C 1030.7 hPa SW 9.7 km/h 11.3 km/h 53% 0 mm
23:55 3.2 °C -5.7 °C 1030.7 hPa WNW 1.4 km/h 20.9 km/h 52% 0 mm
WheeWeather.com
Compliments of Weather Underground - 2 mb